Portada
METAR-TAF:

METAR-TAF

Aeroports :

Daytona Beach, Florida, Estats Units d'Amèrica

latitud: 29-10-38N, longitud: 081-03-36W, altitud: 10 m

Observació

L'informe es va fer fa 1 hora i 6 minuts, a les 16:53 UTC
Vent 10 kt del Oest/Nord-Oest
Temperatura 13°C
Humitat 47%
Pressió 1022 hPa
Visibilitat: 16.1 km
Cel clar

METAR: KDAB 271653Z 29010KT 10SM CLR 13/02 A3018 RMK AO2 SLP217 T01330022

Hora: 12:59 (17:59 UTC)

Pronòstic

L'informe es va fer fa 39 minuts, a les 17:20 UTC
Pronòstic vàlid del 27 a les 18 UTC al 28 a les 18 UTC
Vent 12 kt del Nord-Oest amb ràfegues de 18 kt
Visibilitat: 10 km
Cel clar
A partir de les 28 a les 0000 UTC
Vent 3 kt del Oest/Nord-Oest
Visibilitat: 10 km
Cel clar

TAF: KDAB 271720Z 2718/2818 31012G18KT P6SM SKC FM280000 29003KT P6SM SKC

Observacions i pronòstics meteorològics de més de 4000 aeroports (METAR i TAF).

Les estacions disponibles són els punts grocs i vermells al mapa.

Posi el ratolí al punt desitjat per veure el nom de l'estació.

Feu clic per veure les observacions i els pronòstics meteorològics.

Per canviar el mapa: feu clic els botons verds amb una creu de color negre per apropar; al botó verd amb un guió per allunyar la imatge; o en les fletxes verdes per a mapes adjacents.


METAR-TAF: